Аэропорт: Полярный. Удачный

ICAO: UERP

METAR:
2019-07-23 18:00:00
UERP 231800Z 27002MPS 7000 NSC 20/05 Q1011 R35/090060 NOSIG RMK QFE714
METAR:
2019-07-23 17:00:00
TAF UERP 231700Z 2318/2418 VRB01MPS 4000 HZ NSC TEMPO 2318/2324 1000 HZ